Time;durP1;ratioP1;P1;durP2;ratioP2;P2;SDS_P1;SDS_P2;PMS_P1;PMS_P2;Temp;Humidity;BMP_temperature;BMP_pressure;BME280_temperature;BME280_humidity;BME280_pressure;Samples;Min_cycle;Max_cycle;Signal;HPM_P1;HPM_P2
2023/10/20 00:00:53;;;;;;;1.27;0.27;;;18.70;99.90;;;;;;4988537;28;20049;-71
2023/10/20 00:03:19;;;;;;;0.60;0.40;;;18.60;99.90;;;;;;4989550;28;20030;-70
2023/10/20 00:05:45;;;;;;;3.47;0.70;;;18.60;99.90;;;;;;4989414;28;20031;-71
2023/10/20 00:08:10;;;;;;;3.53;0.53;;;18.60;99.90;;;;;;4989488;28;20035;-71
2023/10/20 00:10:36;;;;;;;1.47;0.40;;;18.50;99.90;;;;;;4988460;28;20030;-72
2023/10/20 00:13:05;;;;;;;1.02;0.45;;;18.50;99.90;;;;;;4990053;28;20092;-70
2023/10/20 00:15:32;;;;;;;1.60;0.40;;;18.50;99.90;;;;;;4985986;28;20041;-71
2023/10/20 00:17:57;;;;;;;2.08;0.40;;;18.50;99.90;;;;;;4988240;28;20080;-70
2023/10/20 00:20:23;;;;;;;1.90;0.73;;;18.50;99.90;;;;;;4989148;28;20117;-71
2023/10/20 00:22:49;;;;;;;2.85;0.93;;;18.40;99.90;;;;;;4989666;28;20406;-69
2023/10/20 00:25:15;;;;;;;7.07;0.95;;;18.30;99.90;;;;;;4991250;28;20038;-71
2023/10/20 00:27:43;;;;;;;1.47;0.50;;;18.30;99.90;;;;;;4989543;28;20113;-71
2023/10/20 00:30:09;;;;;;;1.92;0.77;;;18.30;99.90;;;;;;4987449;28;20038;-71
2023/10/20 00:32:39;;;;;;;2.33;0.70;;;18.20;99.90;;;;;;4988836;28;20057;-71
2023/10/20 00:35:06;;;;;;;4.45;0.93;;;18.30;99.90;;;;;;4989685;28;20054;-70
2023/10/20 00:37:31;;;;;;;5.10;0.90;;;18.30;99.90;;;;;;4988636;28;20034;-71
2023/10/20 00:39:59;;;;;;;3.50;0.63;;;18.40;99.90;;;;;;4989018;28;20049;-72
2023/10/20 00:42:25;;;;;;;3.25;0.50;;;18.40;99.90;;;;;;4989228;28;20042;-72
2023/10/20 00:44:53;;;;;;;2.25;0.50;;;18.40;99.90;;;;;;4987550;28;20038;-70
2023/10/20 00:47:20;;;;;;;1.80;0.50;;;18.50;99.90;;;;;;4984795;28;20096;-71
2023/10/20 00:49:46;;;;;;;1.50;0.50;;;18.50;99.90;;;;;;4988772;28;20521;-69
2023/10/20 00:52:13;;;;;;;5.37;0.70;;;18.50;99.90;;;;;;4989194;28;20034;-69
2023/10/20 00:54:42;;;;;;;7.00;0.85;;;18.50;99.90;;;;;;4984838;28;20043;-69
2023/10/20 00:57:07;;;;;;;5.05;0.40;;;18.50;99.90;;;;;;4987131;28;20035;-69
2023/10/20 00:59:33;;;;;;;1.90;0.30;;;18.80;99.90;;;;;;4988772;28;20092;-70
2023/10/20 01:01:58;;;;;;;1.20;0.50;;;19.30;99.90;;;;;;4986000;28;20525;-71
2023/10/20 01:04:24;;;;;;;1.90;0.37;;;19.40;99.90;;;;;;4988226;28;20124;-70
2023/10/20 01:06:53;;;;;;;3.47;0.40;;;19.40;99.90;;;;;;4988841;28;20506;-70
2023/10/20 01:09:28;;;;;;;0.88;0.38;;;19.50;99.90;;;;;;4988553;28;20034;-72
2023/10/20 01:11:54;;;;;;;0.73;0.40;;;19.70;99.90;;;;;;4988601;28;20037;-71
2023/10/20 01:14:20;;;;;;;1.15;0.47;;;19.90;99.70;;;;;;4988933;28;20053;-71
2023/10/20 01:16:47;;;;;;;0.93;0.32;;;19.70;99.90;;;;;;4989107;28;20046;-71
2023/10/20 01:19:13;;;;;;;0.73;0.20;;;20.00;99.80;;;;;;4988313;28;20030;-70
2023/10/20 01:21:39;;;;;;;;;;;20.20;98.90;;;;;;4989310;28;20093;-70
2023/10/20 01:24:05;;;;;;;3.22;0.20;;;20.50;97.40;;;;;;4988910;28;20294;-71
2023/10/20 01:26:31;;;;;;;4.55;0.40;;;20.60;97.30;;;;;;4988515;28;20030;-70
2023/10/20 01:28:57;;;;;;;3.33;0.30;;;20.30;98.70;;;;;;4987580;28;20041;-69
2023/10/20 01:31:23;;;;;;;1.23;0.40;;;20.50;97.30;;;;;;4987851;28;20050;-71
2023/10/20 01:33:49;;;;;;;4.70;0.40;;;20.30;99.90;;;;;;4988168;28;20065;-69
2023/10/20 01:36:15;;;;;;;1.77;0.28;;;20.20;99.90;;;;;;4988078;28;20048;-70
2023/10/20 01:38:40;;;;;;;0.47;0.23;;;20.10;99.90;;;;;;4987439;28;20113;-71
2023/10/20 01:41:07;;;;;;;3.87;0.30;;;19.90;99.90;;;;;;4987387;28;20339;-70
2023/10/20 01:43:33;;;;;;;;;;;19.70;99.90;;;;;;4988234;28;20361;-71
2023/10/20 01:45:59;;;;;;;4.38;0.40;;;19.90;99.90;;;;;;4987344;28;20389;-70
2023/10/20 01:48:25;;;;;;;;;;;19.80;99.90;;;;;;4987446;28;20030;-72
2023/10/20 01:50:51;;;;;;;0.70;0.30;;;19.80;99.90;;;;;;4988315;28;19917;-70
2023/10/20 01:53:16;;;;;;;0.93;0.30;;;19.70;99.90;;;;;;4987703;28;20506;-70
2023/10/20 01:55:49;;;;;;;0.20;0.20;;;19.70;99.90;;;;;;4987708;28;20036;-70
2023/10/20 01:58:18;;;;;;;2.85;0.30;;;19.70;99.90;;;;;;4987604;28;20289;-71
2023/10/20 02:00:44;;;;;;;1.38;0.30;;;19.70;99.90;;;;;;4986986;28;20038;-69
2023/10/20 02:03:10;;;;;;;0.60;0.20;;;19.70;99.90;;;;;;4986720;28;20034;-70
2023/10/20 02:05:36;;;;;;;0.93;0.40;;;19.60;99.90;;;;;;4987125;28;20069;-71
2023/10/20 02:08:02;;;;;;;4.32;0.80;;;19.50;99.90;;;;;;4987068;28;20046;-71
2023/10/20 02:10:28;;;;;;;2.55;0.30;;;19.40;99.90;;;;;;4976380;28;20030;-71
2023/10/20 02:12:53;;;;;;;0.85;0.50;;;19.50;99.90;;;;;;4987730;28;20666;-69
2023/10/20 02:15:19;;;;;;;3.58;0.40;;;19.40;99.90;;;;;;4986546;28;20818;-71
2023/10/20 02:17:45;;;;;;;4.47;0.30;;;19.30;99.90;;;;;;4987018;28;20045;-71
2023/10/20 02:20:11;;;;;;;0.68;0.20;;;19.20;99.90;;;;;;4985811;28;20084;-71
2023/10/20 02:22:37;;;;;;;4.13;0.30;;;18.90;99.90;;;;;;4986887;28;20038;-69
2023/10/20 02:25:04;;;;;;;6.00;0.50;;;18.80;99.90;;;;;;4982493;28;20108;-70
2023/10/20 02:27:29;;;;;;;0.85;0.20;;;18.90;99.90;;;;;;4978129;28;20034;-69
2023/10/20 02:29:56;;;;;;;0.40;0.40;;;18.80;99.90;;;;;;4985243;28;20383;-69
2023/10/20 02:32:21;;;;;;;2.80;0.40;;;18.90;99.90;;;;;;4989244;28;20029;-69
2023/10/20 02:34:47;;;;;;;0.53;0.23;;;18.80;99.90;;;;;;5016457;28;20042;-69
2023/10/20 02:37:14;;;;;;;2.17;0.37;;;18.80;99.90;;;;;;4984964;28;20053;-69
2023/10/20 02:39:40;;;;;;;0.32;0.20;;;18.70;99.90;;;;;;4984683;28;20525;-69
2023/10/20 02:42:06;;;;;;;0.98;0.25;;;18.80;99.90;;;;;;4984456;28;20026;-69
2023/10/20 02:44:32;;;;;;;0.85;0.30;;;18.80;99.90;;;;;;4985301;28;20030;-68
2023/10/20 02:46:57;;;;;;;0.93;0.40;;;19.00;99.90;;;;;;4985600;28;20043;-69
2023/10/20 02:49:24;;;;;;;4.18;0.50;;;19.00;99.90;;;;;;4985839;28;20572;-68
2023/10/20 02:51:49;;;;;;;;;;;18.90;99.90;;;;;;4985956;28;20502;-69
2023/10/20 02:54:15;;;;;;;2.95;0.50;;;18.90;99.90;;;;;;4983652;28;19920;-70
2023/10/20 02:56:41;;;;;;;8.03;1.87;;;18.80;99.90;;;;;;4986141;28;20050;-71
2023/10/20 02:59:06;;;;;;;8.87;1.90;;;18.50;99.90;;;;;;4985753;28;20033;-71
2023/10/20 03:01:32;;;;;;;6.80;1.80;;;18.20;99.90;;;;;;4986124;28;20037;-71
2023/10/20 03:03:58;;;;;;;8.00;1.63;;;17.80;99.90;;;;;;4985253;28;20032;-70
2023/10/20 03:06:24;;;;;;;10.60;1.63;;;17.60;99.90;;;;;;4985580;28;20042;-71
2023/10/20 03:08:50;;;;;;;8.47;1.33;;;17.50;99.90;;;;;;4986048;28;20283;-71
2023/10/20 03:11:16;;;;;;;8.02;1.70;;;17.50;99.90;;;;;;4984653;28;20038;-71
2023/10/20 03:13:41;;;;;;;4.47;1.00;;;17.30;99.90;;;;;;4985459;28;20035;-71
2023/10/20 03:16:07;;;;;;;6.10;1.07;;;17.30;99.90;;;;;;4984735;28;20121;-70
2023/10/20 03:18:33;;;;;;;8.20;1.20;;;17.30;99.90;;;;;;4985383;28;20057;-70
2023/10/20 03:21:02;;;;;;;2.35;0.60;;;17.30;99.90;;;;;;4986361;28;20065;-70
2023/10/20 03:23:27;;;;;;;1.92;0.60;;;17.20;99.90;;;;;;4986406;28;20024;-71
2023/10/20 03:25:53;;;;;;;4.22;1.00;;;17.10;99.90;;;;;;4985411;28;20035;-71
2023/10/20 03:28:19;;;;;;;3.35;0.55;;;16.90;99.90;;;;;;4986975;28;20115;-71
2023/10/20 03:30:46;;;;;;;8.50;0.50;;;16.90;99.90;;;;;;4984179;28;20038;-70
2023/10/20 03:33:15;;;;;;;1.58;0.30;;;16.80;99.90;;;;;;4985868;28;20049;-71
2023/10/20 03:35:42;;;;;;;3.25;1.02;;;16.80;99.90;;;;;;4986226;28;20124;-70
2023/10/20 03:38:09;;;;;;;1.93;0.50;;;16.90;99.90;;;;;;4985834;28;20038;-71
2023/10/20 03:40:40;;;;;;;0.90;0.30;;;16.80;99.90;;;;;;4985684;28;20101;-71
2023/10/20 03:43:09;;;;;;;5.10;0.75;;;16.70;99.90;;;;;;4986118;28;20113;-70
2023/10/20 03:45:56;;;;;;;3.53;0.50;;;16.70;99.90;;;;;;4984685;28;20039;-70
2023/10/20 03:48:23;;;;;;;1.07;0.47;;;16.90;99.90;;;;;;4984799;28;20030;-71
2023/10/20 03:50:51;;;;;;;1.35;0.40;;;16.90;99.90;;;;;;4986839;28;20347;-70
2023/10/20 03:53:26;;;;;;;3.30;0.60;;;16.80;99.90;;;;;;4989258;28;20018;-70
2023/10/20 03:56:04;;;;;;;1.23;0.55;;;16.90;99.90;;;;;;4987499;28;20058;-72
2023/10/20 03:58:30;;;;;;;2.58;0.60;;;16.80;99.90;;;;;;4988915;28;20023;-70
2023/10/20 04:01:02;;;;;;;2.75;0.63;;;16.50;99.90;;;;;;4989671;28;20034;-71
2023/10/20 04:03:31;;;;;;;6.43;0.80;;;16.40;99.90;;;;;;4981713;28;20022;-71
2023/10/20 04:05:57;;;;;;;1.58;0.50;;;16.50;99.90;;;;;;4989157;28;20095;-72
2023/10/20 04:08:24;;;;;;;6.63;0.88;;;16.50;99.90;;;;;;5020876;28;20030;-71
2023/10/20 04:10:57;;;;;;;1.55;0.60;;;16.50;99.90;;;;;;4989518;28;20039;-71
2023/10/20 04:13:23;;;;;;;3.60;0.88;;;16.50;99.90;;;;;;4989048;28;20077;-71
2023/10/20 04:15:49;;;;;;;2.97;0.70;;;16.50;99.90;;;;;;4987482;28;20042;-71
2023/10/20 04:18:19;;;;;;;4.18;0.90;;;16.50;99.90;;;;;;4988816;28;20316;-71
2023/10/20 04:20:48;;;;;;;5.00;0.80;;;16.50;99.90;;;;;;4987839;28;20330;-70
2023/10/20 04:23:17;;;;;;;4.07;0.80;;;16.40;99.90;;;;;;4989359;28;20441;-71
2023/10/20 04:25:52;;;;;;;9.73;2.95;;;16.30;99.90;;;;;;4987100;28;20046;-70
2023/10/20 04:28:32;;;;;;;2.55;0.90;;;16.30;99.90;;;;;;4989178;28;20030;-70
2023/10/20 04:57:52;;;;;;;1.50;0.60;;;16.00;99.90;;;;;;4988860;28;20026;-70
2023/10/20 05:07:54;;;;;;;3.87;0.47;;;15.80;99.90;;;;;;4988379;28;20041;-70
2023/10/20 05:10:20;;;;;;;3.05;0.75;;;15.90;99.90;;;;;;4987621;28;20292;-70
2023/10/20 05:12:49;;;;;;;2.80;0.95;;;15.90;99.90;;;;;;4987658;28;20112;-71
2023/10/20 05:15:15;;;;;;;2.05;0.50;;;15.80;99.90;;;;;;4986970;28;20133;-69
2023/10/20 05:17:41;;;;;;;2.08;0.50;;;15.80;99.90;;;;;;4985962;28;20022;-68
2023/10/20 05:20:12;;;;;;;1.63;0.60;;;15.70;99.90;;;;;;4986868;28;20041;-68
2023/10/20 05:22:41;;;;;;;4.63;1.30;;;15.80;99.90;;;;;;4987771;28;20157;-67
2023/10/20 05:25:08;;;;;;;1.15;0.50;;;15.70;99.90;;;;;;4987284;28;20519;-68
2023/10/20 05:27:34;;;;;;;0.75;0.47;;;15.60;99.90;;;;;;5017079;28;20058;-67
2023/10/20 05:30:00;;;;;;;5.50;0.50;;;15.60;99.90;;;;;;4983632;28;20061;-69
2023/10/20 05:32:28;;;;;;;1.95;0.52;;;15.70;99.90;;;;;;5015462;28;20030;-71
2023/10/20 05:34:54;;;;;;;3.92;1.00;;;15.60;99.90;;;;;;4987332;28;20120;-69
2023/10/20 05:37:23;;;;;;;1.17;0.40;;;15.60;99.90;;;;;;5018444;28;20076;-68
2023/10/20 05:39:48;;;;;;;2.10;0.90;;;15.70;99.90;;;;;;4987462;28;20306;-69
2023/10/20 05:42:16;;;;;;;2.47;0.80;;;15.70;99.90;;;;;;4974388;28;20035;-68
2023/10/20 05:47:27;;;;;;;1.27;0.60;;;15.70;99.90;;;;;;4986111;28;20061;-67
2023/10/20 05:49:53;;;;;;;2.80;1.40;;;15.60;99.90;;;;;;4985073;28;20061;-67
2023/10/20 05:52:20;;;;;;;4.38;1.08;;;15.60;99.90;;;;;;4985475;28;20084;-67
2023/10/20 05:54:45;;;;;;;3.78;0.90;;;15.60;99.90;;;;;;4986219;28;20038;-68
2023/10/20 05:57:11;;;;;;;6.67;1.17;;;15.70;99.90;;;;;;4985437;28;20442;-68
2023/10/20 05:59:38;;;;;;;1.90;0.97;;;15.60;99.90;;;;;;4986252;28;20030;-68
2023/10/20 06:02:04;;;;;;;7.13;1.27;;;15.60;99.90;;;;;;4986542;28;20034;-66
2023/10/20 06:04:29;;;;;;;3.50;1.23;;;15.70;99.90;;;;;;4984281;28;20034;-67
2023/10/20 06:06:56;;;;;;;0.83;0.50;;;15.70;99.90;;;;;;4986081;28;20402;-67
2023/10/20 06:09:25;;;;;;;1.88;0.70;;;15.80;99.90;;;;;;4985486;28;20062;-67
2023/10/20 06:11:53;;;;;;;0.88;0.50;;;15.80;99.90;;;;;;4985214;28;20030;-66
2023/10/20 06:14:23;;;;;;;2.85;0.52;;;15.80;99.90;;;;;;5017340;28;20506;-67
2023/10/20 06:16:49;;;;;;;2.17;0.68;;;15.80;99.90;;;;;;4986420;28;20602;-67
2023/10/20 06:19:15;;;;;;;2.75;0.75;;;15.70;99.90;;;;;;4987219;28;20022;-69
2023/10/20 06:21:45;;;;;;;3.85;1.00;;;15.80;99.90;;;;;;4984444;28;20570;-68
2023/10/20 06:24:11;;;;;;;2.70;1.00;;;15.80;99.90;;;;;;4985615;28;20030;-68
2023/10/20 06:26:37;;;;;;;4.93;0.80;;;15.70;99.90;;;;;;4984116;28;20034;-69
2023/10/20 06:29:17;;;;;;;3.63;0.93;;;15.60;99.90;;;;;;4985544;28;20106;-70
2023/10/20 06:31:43;;;;;;;2.28;0.73;;;15.60;99.90;;;;;;4988395;28;20104;-70
2023/10/20 06:36:38;;;;;;;2.85;0.93;;;15.50;99.90;;;;;;4985676;28;20410;-68
2023/10/20 06:39:05;;;;;;;3.83;0.65;;;15.50;99.90;;;;;;4985267;28;20030;-69
2023/10/20 06:41:30;;;;;;;2.88;0.90;;;15.40;99.90;;;;;;4986121;28;20034;-68
2023/10/20 06:43:56;;;;;;;2.20;0.80;;;15.40;99.90;;;;;;4985994;28;20045;-69
2023/10/20 06:46:22;;;;;;;1.10;0.60;;;15.40;99.90;;;;;;4984899;28;20037;-68
2023/10/20 06:48:48;;;;;;;0.88;0.63;;;15.40;99.90;;;;;;4980606;28;20038;-69
2023/10/20 06:51:14;;;;;;;7.23;0.93;;;15.40;99.90;;;;;;4984976;28;20066;-68
2023/10/20 06:53:39;;;;;;;2.22;0.65;;;15.40;99.90;;;;;;4985276;28;20092;-69
2023/10/20 06:56:09;;;;;;;8.77;0.97;;;15.40;99.90;;;;;;4982825;28;20043;-69
2023/10/20 06:58:34;;;;;;;2.72;0.70;;;15.40;99.90;;;;;;4984737;28;20413;-69
2023/10/20 07:01:07;;;;;;;0.87;0.57;;;15.50;99.90;;;;;;4985046;28;20105;-69
2023/10/20 07:03:33;;;;;;;0.60;0.50;;;15.30;99.90;;;;;;4983136;28;20030;-68
2023/10/20 07:06:07;;;;;;;2.13;0.68;;;15.30;99.90;;;;;;4983962;28;21593;-69
2023/10/20 07:08:33;;;;;;;3.20;0.82;;;15.30;99.90;;;;;;4983122;28;20038;-69
2023/10/20 07:11:03;;;;;;;13.10;0.82;;;15.30;99.90;;;;;;4973939;28;20029;-68
2023/10/20 07:13:32;;;;;;;1.48;0.43;;;15.30;99.90;;;;;;4984244;28;20043;-69
2023/10/20 07:15:58;;;;;;;2.92;0.52;;;15.40;99.90;;;;;;4983579;28;20045;-68
2023/10/20 07:18:24;;;;;;;0.60;0.40;;;15.40;99.90;;;;;;4984858;28;20026;-69
2023/10/20 07:20:50;;;;;;;0.30;0.30;;;15.40;99.90;;;;;;4984116;28;20050;-69
2023/10/20 07:23:17;;;;;;;0.40;0.40;;;15.40;99.90;;;;;;4984905;28;20041;-68
2023/10/20 07:25:43;;;;;;;0.52;0.35;;;15.30;99.90;;;;;;4982949;28;20521;-68
2023/10/20 07:28:10;;;;;;;1.20;0.45;;;15.40;99.90;;;;;;4988520;28;20042;-68
2023/10/20 07:30:36;;;;;;;1.20;0.40;;;15.40;99.90;;;;;;4987928;28;20042;-68
2023/10/20 07:33:05;;;;;;;1.95;0.40;;;15.30;99.90;;;;;;4988389;28;20168;-69
2023/10/20 07:35:30;;;;;;;1.10;0.38;;;15.30;99.90;;;;;;4986081;28;20030;-69
2023/10/20 07:37:57;;;;;;;1.70;0.50;;;15.30;99.90;;;;;;4988843;28;20100;-70
2023/10/20 07:40:26;;;;;;;0.90;0.30;;;15.30;99.90;;;;;;4988072;28;20107;-67
2023/10/20 07:42:52;;;;;;;1.13;0.50;;;15.30;99.90;;;;;;4988120;28;20089;-70
2023/10/20 07:45:18;;;;;;;1.52;0.43;;;15.30;99.90;;;;;;4988450;28;20033;-68
2023/10/20 07:47:44;;;;;;;4.83;0.97;;;15.20;99.90;;;;;;4988739;28;20038;-67
2023/10/20 07:50:09;;;;;;;9.37;1.47;;;15.20;99.90;;;;;;4981430;28;20033;-65
2023/10/20 07:52:35;;;;;;;5.47;1.20;;;15.20;99.90;;;;;;4987000;28;20403;-66
2023/10/20 07:55:02;;;;;;;5.43;0.90;;;15.20;99.90;;;;;;4988222;28;20277;-66
2023/10/20 07:57:28;;;;;;;0.95;0.55;;;15.20;99.90;;;;;;4986240;28;20453;-66
2023/10/20 07:59:54;;;;;;;;;;;15.20;99.90;;;;;;4990124;28;20431;-67
2023/10/20 08:02:19;;;;;;;1.88;0.70;;;15.30;99.90;;;;;;4988462;28;19957;-67
2023/10/20 08:04:45;;;;;;;4.80;0.50;;;15.20;99.90;;;;;;4986111;28;20073;-67
2023/10/20 08:07:11;;;;;;;2.80;0.90;;;15.10;99.90;;;;;;4988963;28;20082;-67
2023/10/20 08:09:36;;;;;;;4.40;0.93;;;15.20;99.90;;;;;;4988355;28;20081;-68
2023/10/20 08:12:03;;;;;;;2.73;0.70;;;15.20;99.90;;;;;;4987801;28;20022;-67
2023/10/20 08:14:29;;;;;;;1.85;0.75;;;15.40;99.90;;;;;;4988138;28;20285;-68
2023/10/20 08:16:54;;;;;;;1.20;0.75;;;15.30;99.90;;;;;;4985645;28;20053;-67
2023/10/20 08:19:20;;;;;;;3.73;0.40;;;15.30;99.90;;;;;;4988321;28;20022;-67
2023/10/20 08:21:46;;;;;;;2.07;0.77;;;15.30;99.90;;;;;;4987736;28;20281;-68
2023/10/20 08:24:13;;;;;;;3.40;0.50;;;15.20;99.90;;;;;;4988260;28;20285;-67
2023/10/20 08:26:39;;;;;;;;;;;15.10;99.90;;;;;;4987291;28;20034;-67
2023/10/20 08:29:11;;;;;;;1.65;0.60;;;15.20;99.90;;;;;;4988780;28;19961;-67
2023/10/20 08:31:38;;;;;;;3.70;0.65;;;15.20;99.90;;;;;;4988408;28;20065;-68
2023/10/20 08:34:04;;;;;;;3.20;0.77;;;15.30;99.90;;;;;;4988061;28;20030;-67
2023/10/20 08:36:30;;;;;;;1.23;0.43;;;15.20;99.90;;;;;;4987746;28;20057;-68
2023/10/20 08:39:01;;;;;;;1.63;0.40;;;15.20;99.90;;;;;;4977219;28;20031;-68
2023/10/20 08:41:27;;;;;;;0.75;0.40;;;15.20;99.90;;;;;;4987955;28;20030;-68
2023/10/20 08:43:55;;;;;;;2.45;0.70;;;15.20;99.90;;;;;;4987598;28;20027;-67
2023/10/20 08:46:23;;;;;;;0.93;0.65;;;15.20;99.90;;;;;;4988012;28;20462;-68
2023/10/20 08:48:49;;;;;;;5.32;1.48;;;15.30;99.90;;;;;;4987927;28;20449;-67
2023/10/20 08:51:17;;;;;;;1.23;0.57;;;15.20;99.90;;;;;;4988103;28;20043;-67
2023/10/20 08:53:44;;;;;;;1.80;0.50;;;15.10;99.90;;;;;;4988261;28;20508;-68
2023/10/20 08:56:14;;;;;;;0.70;0.50;;;15.20;99.90;;;;;;4988268;28;20052;-67
2023/10/20 08:58:40;;;;;;;2.97;0.68;;;15.20;99.90;;;;;;4987886;28;20038;-67
2023/10/20 09:01:06;;;;;;;2.08;0.80;;;15.20;99.90;;;;;;4986832;28;20553;-67
2023/10/20 09:03:46;;;;;;;1.90;0.82;;;15.20;99.90;;;;;;4988605;28;20092;-67
2023/10/20 09:06:16;;;;;;;1.67;1.05;;;15.20;99.90;;;;;;4987522;28;20042;-67
2023/10/20 09:08:43;;;;;;;5.88;1.67;;;15.20;99.90;;;;;;4987442;28;20026;-67
2023/10/20 09:11:10;;;;;;;3.05;1.20;;;15.30;99.90;;;;;;4986875;28;20049;-68
2023/10/20 09:13:38;;;;;;;1.13;1.02;;;15.30;99.90;;;;;;4986902;28;20026;-67
2023/10/20 09:16:08;;;;;;;2.13;1.20;;;15.20;99.90;;;;;;4986365;28;20049;-66
2023/10/20 09:18:50;;;;;;;4.47;0.70;;;15.30;99.90;;;;;;4987094;28;20514;-67
2023/10/20 09:21:18;;;;;;;3.30;1.13;;;15.20;99.90;;;;;;4984844;28;20018;-67
2023/10/20 09:24:06;;;;;;;1.60;1.00;;;15.20;99.90;;;;;;4983583;28;20042;-67
2023/10/20 09:26:36;;;;;;;1.17;0.80;;;15.20;99.90;;;;;;4982402;28;20066;-68
2023/10/20 09:29:06;;;;;;;0.68;0.63;;;15.30;99.90;;;;;;4985052;28;20023;-67
2023/10/20 09:31:34;;;;;;;1.55;0.98;;;15.30;99.90;;;;;;4984187;28;20232;-67
2023/10/20 09:34:00;;;;;;;2.53;1.00;;;15.50;99.90;;;;;;4986913;28;20117;-66
2023/10/20 09:36:31;;;;;;;1.05;0.60;;;15.60;99.90;;;;;;4986872;28;20466;-67
2023/10/20 09:39:00;;;;;;;0.85;0.65;;;15.70;99.90;;;;;;4988417;28;20038;-68
2023/10/20 09:41:27;;;;;;;2.45;0.60;;;15.80;99.90;;;;;;4986906;28;20129;-67
2023/10/20 09:44:06;;;;;;;1.20;0.80;;;15.90;99.90;;;;;;4986661;28;20077;-68
2023/10/20 09:46:53;;;;;;;1.38;0.60;;;15.80;99.90;;;;;;4986622;28;20030;-67
2023/10/20 09:49:25;;;;;;;1.05;0.73;;;15.90;99.90;;;;;;4986446;28;20118;-68
2023/10/20 09:51:53;;;;;;;2.00;0.50;;;15.90;99.90;;;;;;4987094;28;20557;-68
2023/10/20 09:54:31;;;;;;;1.20;0.43;;;15.70;99.90;;;;;;4985882;28;20030;-68
2023/10/20 09:56:57;;;;;;;2.53;0.50;;;15.70;99.90;;;;;;4986320;28;20042;-69
2023/10/20 09:59:24;;;;;;;;;;;15.90;99.90;;;;;;4984625;28;20037;-67
2023/10/20 10:01:53;;;;;;;1.42;0.50;;;15.90;99.90;;;;;;4986182;28;19913;-67
2023/10/20 10:04:26;;;;;;;1.67;0.60;;;15.90;99.90;;;;;;4986005;28;20077;-69
2023/10/20 10:06:52;;;;;;;1.75;0.60;;;16.00;99.90;;;;;;4985687;28;20036;-68
2023/10/20 10:09:18;;;;;;;0.70;0.40;;;16.10;99.90;;;;;;4986676;28;20406;-69
2023/10/20 10:11:44;;;;;;;3.33;0.40;;;16.10;99.90;;;;;;4985764;28;20568;-68
2023/10/20 10:14:22;;;;;;;0.60;0.57;;;16.10;99.90;;;;;;4986366;28;20050;-68
2023/10/20 10:16:55;;;;;;;1.92;0.50;;;16.20;99.90;;;;;;4986236;28;20050;-68
2023/10/20 10:19:26;;;;;;;0.90;0.60;;;16.40;99.90;;;;;;4960773;28;20160;-68
2023/10/20 10:21:59;;;;;;;2.38;0.60;;;16.70;99.90;;;;;;4985108;28;20045;-67
2023/10/20 10:24:25;;;;;;;0.80;0.50;;;17.10;99.90;;;;;;4985236;28;20037;-66
2023/10/20 10:26:54;;;;;;;0.38;0.30;;;17.20;99.90;;;;;;4984951;28;20042;-66
2023/10/20 10:29:39;;;;;;;0.45;0.30;;;17.10;99.90;;;;;;4985025;28;20602;-66
2023/10/20 10:32:12;;;;;;;0.80;0.45;;;17.10;99.90;;;;;;4984400;28;20064;-66
2023/10/20 10:34:45;;;;;;;0.40;0.30;;;17.10;99.90;;;;;;4984006;28;20037;-66
2023/10/20 10:37:11;;;;;;;0.65;0.35;;;17.10;99.90;;;;;;4982458;28;20100;-66
2023/10/20 10:39:36;;;;;;;0.57;0.35;;;17.10;99.90;;;;;;4983392;28;20030;-67
2023/10/20 10:42:03;;;;;;;1.27;0.30;;;17.10;99.90;;;;;;4985005;28;20041;-66
2023/10/20 10:44:34;;;;;;;0.73;0.30;;;17.10;99.90;;;;;;4983504;28;20726;-66
2023/10/20 10:47:00;;;;;;;0.25;0.20;;;17.20;99.90;;;;;;5012430;28;20590;-66
2023/10/20 10:49:26;;;;;;;;;;;17.20;99.90;;;;;;4985274;28;20038;-66
2023/10/20 10:51:52;;;;;;;2.45;0.30;;;17.40;99.90;;;;;;4984627;28;19921;-66
2023/10/20 10:54:18;;;;;;;1.83;0.40;;;17.40;99.90;;;;;;4985151;28;20022;-66
2023/10/20 10:56:45;;;;;;;0.40;0.40;;;17.50;99.90;;;;;;4984020;28;20137;-66
2023/10/20 10:59:11;;;;;;;4.88;0.30;;;17.50;99.90;;;;;;4985171;28;20034;-66
2023/10/20 11:01:39;;;;;;;0.77;0.30;;;17.50;99.90;;;;;;4983779;28;20414;-66
2023/10/20 11:04:08;;;;;;;1.15;0.30;;;17.40;99.90;;;;;;4984484;28;20035;-66
2023/10/20 11:06:38;;;;;;;0.85;0.30;;;17.30;99.90;;;;;;4985194;28;20525;-66
2023/10/20 11:09:10;;;;;;;1.05;0.40;;;17.20;99.90;;;;;;4986188;28;20037;-66
2023/10/20 11:11:45;;;;;;;1.48;0.40;;;17.30;99.90;;;;;;4993457;28;20035;-66
2023/10/20 11:14:18;;;;;;;0.32;0.32;;;17.40;99.90;;;;;;4985882;28;20042;-66
2023/10/20 11:16:44;;;;;;;0.95;0.20;;;17.50;99.90;;;;;;4986443;28;20121;-67
2023/10/20 11:19:13;;;;;;;3.60;0.40;;;17.50;99.90;;;;;;4985823;28;20117;-67
2023/10/20 11:21:49;;;;;;;1.75;0.50;;;17.40;99.90;;;;;;4984642;28;20041;-67
2023/10/20 11:24:53;;;;;;;1.33;0.50;;;17.50;99.90;;;;;;4984123;28;20027;-67
2023/10/20 11:27:19;;;;;;;1.30;0.30;;;17.40;99.90;;;;;;4984732;28;20144;-67
2023/10/20 11:29:45;;;;;;;3.10;0.50;;;17.40;99.90;;;;;;4982387;28;20030;-66
2023/10/20 11:32:14;;;;;;;1.33;0.38;;;17.40;99.90;;;;;;4984099;28;20022;-67
2023/10/20 11:34:40;;;;;;;0.65;0.45;;;17.50;99.90;;;;;;4980341;28;20103;-69
2023/10/20 11:37:07;;;;;;;0.30;0.30;;;17.60;99.90;;;;;;4984019;28;20038;-69
2023/10/20 11:39:36;;;;;;;1.15;0.40;;;17.60;99.90;;;;;;4984671;28;20089;-70
2023/10/20 11:42:03;;;;;;;0.30;0.25;;;17.70;99.90;;;;;;4985231;28;20038;-69
2023/10/20 11:44:29;;;;;;;0.20;0.20;;;17.70;99.90;;;;;;4983381;28;20031;-67
2023/10/20 11:46:55;;;;;;;3.72;0.30;;;17.80;99.90;;;;;;4995595;28;20107;-69
2023/10/20 11:49:23;;;;;;;0.63;0.30;;;17.80;99.90;;;;;;4984695;28;20030;-68
2023/10/20 11:51:48;;;;;;;0.35;0.30;;;17.70;99.90;;;;;;4984619;28;20338;-68
2023/10/20 11:54:14;;;;;;;3.40;0.50;;;17.70;99.90;;;;;;4984443;28;20022;-67
2023/10/20 11:56:40;;;;;;;2.13;0.40;;;17.80;99.90;;;;;;4983982;28;20406;-68
2023/10/20 11:59:07;;;;;;;0.30;0.30;;;17.80;99.90;;;;;;4983946;28;20380;-67
2023/10/20 12:01:33;;;;;;;0.68;0.40;;;17.90;99.90;;;;;;4985031;28;20030;-68
2023/10/20 12:03:59;;;;;;;0.35;0.30;;;17.90;99.90;;;;;;4984923;28;20032;-69
2023/10/20 12:06:25;;;;;;;0.32;0.30;;;17.90;99.90;;;;;;4984360;28;20180;-69
2023/10/20 12:08:51;;;;;;;1.23;0.47;;;17.90;99.90;;;;;;4984089;28;20505;-69
2023/10/20 12:11:18;;;;;;;0.38;0.38;;;17.90;99.90;;;;;;4984167;28;20521;-69
2023/10/20 12:13:48;;;;;;;1.38;0.50;;;18.00;99.90;;;;;;5017665;28;20038;-67
2023/10/20 12:16:14;;;;;;;1.25;0.52;;;18.10;99.90;;;;;;4988048;28;20026;-69
2023/10/20 12:18:41;;;;;;;;;;;18.10;99.90;;;;;;4986690;28;20041;-68
2023/10/20 12:21:08;;;;;;;1.02;0.50;;;18.10;99.90;;;;;;4987949;28;19910;-68
2023/10/20 12:23:34;;;;;;;1.45;0.40;;;18.10;99.90;;;;;;4987438;28;20069;-69
2023/10/20 12:26:00;;;;;;;0.95;0.40;;;18.20;99.90;;;;;;4988049;28;20030;-69
2023/10/20 12:28:26;;;;;;;2.72;0.40;;;18.20;99.90;;;;;;4986995;28;20449;-68
2023/10/20 12:30:52;;;;;;;1.02;0.50;;;18.20;99.90;;;;;;4988587;28;20025;-68
2023/10/20 12:33:18;;;;;;;1.05;0.52;;;18.20;99.90;;;;;;4986220;28;20184;-68
2023/10/20 12:35:43;;;;;;;2.78;0.40;;;18.20;99.90;;;;;;4987731;28;20566;-68
2023/10/20 12:38:09;;;;;;;0.97;0.53;;;18.20;99.90;;;;;;4987655;28;20056;-68
2023/10/20 12:40:39;;;;;;;1.23;0.52;;;18.20;99.90;;;;;;4987767;28;20038;-68
2023/10/20 12:43:09;;;;;;;1.35;0.30;;;18.20;99.90;;;;;;4987017;28;20038;-69
2023/10/20 12:45:37;;;;;;;0.65;0.40;;;18.20;99.90;;;;;;4986851;28;20026;-69
2023/10/20 12:48:03;;;;;;;1.88;0.47;;;18.30;99.90;;;;;;4986772;28;20034;-69
2023/10/20 12:50:32;;;;;;;2.70;0.80;;;18.30;99.90;;;;;;4987690;28;20041;-69
2023/10/20 12:52:59;;;;;;;0.40;0.40;;;18.30;99.90;;;;;;4987981;28;20068;-69
2023/10/20 12:55:26;;;;;;;2.78;0.50;;;18.30;99.90;;;;;;4988024;28;20026;-68
2023/10/20 12:57:52;;;;;;;6.30;0.43;;;18.30;99.90;;;;;;4987687;28;20051;-68
2023/10/20 13:00:18;;;;;;;1.45;0.50;;;18.40;99.90;;;;;;4986843;28;20069;-69
2023/10/20 13:02:45;;;;;;;1.90;0.45;;;18.50;99.90;;;;;;4985217;28;20027;-68
2023/10/20 13:05:11;;;;;;;0.73;0.45;;;18.50;98.50;;;;;;4984840;28;20034;-67
2023/10/20 13:07:37;;;;;;;1.63;0.50;;;18.50;99.90;;;;;;4986467;28;20038;-67
2023/10/20 13:10:04;;;;;;;1.23;0.50;;;18.60;99.50;;;;;;4986769;28;20109;-68
2023/10/20 13:12:30;;;;;;;2.67;0.57;;;18.50;99.00;;;;;;4987138;28;20036;-67
2023/10/20 13:14:56;;;;;;;1.63;0.40;;;18.60;99.90;;;;;;4987248;28;20034;-68
2023/10/20 13:17:22;;;;;;;4.80;0.60;;;18.60;96.90;;;;;;4987697;28;20304;-67
2023/10/20 13:19:49;;;;;;;1.60;0.50;;;18.60;97.80;;;;;;4983404;28;20038;-68
2023/10/20 13:22:16;;;;;;;1.92;0.40;;;18.80;96.10;;;;;;4986744;28;20061;-67
2023/10/20 13:24:41;;;;;;;4.63;0.47;;;18.90;94.90;;;;;;4986075;28;20097;-67
2023/10/20 13:27:07;;;;;;;2.67;0.43;;;18.90;96.10;;;;;;4986844;28;20130;-68
2023/10/20 13:29:33;;;;;;;5.38;0.77;;;19.00;94.10;;;;;;4984915;28;20467;-68